createdAt,value
2022-12-11T00:03:50.072Z,2.70
2022-12-11T00:08:54.198Z,2.50
2022-12-11T00:13:58.420Z,2.60
2022-12-11T00:19:01.338Z,2.60
2022-12-11T00:24:04.365Z,2.70
2022-12-11T00:29:11.084Z,2.70
2022-12-11T00:34:14.015Z,2.50
2022-12-11T00:39:16.924Z,2.40
2022-12-11T00:44:21.752Z,2.30
2022-12-11T00:49:24.695Z,2.00
2022-12-11T00:54:27.580Z,2.10
2022-12-11T00:59:31.831Z,2.10
2022-12-11T01:04:36.871Z,1.90
2022-12-11T01:09:57.131Z,1.90
2022-12-11T01:15:01.399Z,1.80
2022-12-11T01:20:04.859Z,1.80
2022-12-11T01:25:09.530Z,1.50
2022-12-11T01:30:14.412Z,1.20
2022-12-11T01:35:18.260Z,1.10
2022-12-11T01:40:21.627Z,1.10
2022-12-11T01:45:38.593Z,1.10
2022-12-11T01:50:46.216Z,1.40
2022-12-11T01:55:52.337Z,1.50
2022-12-11T02:00:57.675Z,1.60
2022-12-11T02:06:00.912Z,1.70
2022-12-11T02:11:11.029Z,1.60
2022-12-11T02:16:23.869Z,1.70
2022-12-11T02:21:29.550Z,1.70
2022-12-11T02:26:48.084Z,1.70
2022-12-11T02:31:59.313Z,1.70
2022-12-11T02:37:06.748Z,1.50
2022-12-11T02:42:12.060Z,1.40
2022-12-11T02:47:18.462Z,1.40
2022-12-11T02:52:24.722Z,1.40
2022-12-11T02:57:32.670Z,1.30
2022-12-11T03:02:38.149Z,1.20
2022-12-11T03:07:43.446Z,1.30
2022-12-11T03:12:53.383Z,1.40
2022-12-11T03:18:05.179Z,1.60
2022-12-11T03:23:19.251Z,1.50
2022-12-11T03:28:28.272Z,1.50
2022-12-11T03:33:36.764Z,1.70
2022-12-11T03:38:45.141Z,1.60
2022-12-11T03:43:50.140Z,1.50
2022-12-11T03:48:57.525Z,1.50
2022-12-11T03:54:01.102Z,1.50
2022-12-11T03:59:04.015Z,1.60
2022-12-11T04:04:08.366Z,1.70
2022-12-11T04:09:11.306Z,1.70
2022-12-11T04:14:33.241Z,1.60
2022-12-11T04:19:55.586Z,1.50
2022-12-11T04:24:58.486Z,1.50
2022-12-11T04:30:01.362Z,1.50
2022-12-11T04:35:10.828Z,1.50
2022-12-11T04:40:16.616Z,1.60
2022-12-11T04:45:19.704Z,1.70
2022-12-11T04:50:24.138Z,1.60
2022-12-11T04:55:27.182Z,1.60
2022-12-11T05:00:30.056Z,1.60
2022-12-11T05:05:34.377Z,1.70
2022-12-11T05:10:37.255Z,1.70
2022-12-11T05:15:40.481Z,1.50
2022-12-11T05:20:44.782Z,1.50
2022-12-11T05:25:53.102Z,1.60
2022-12-11T05:31:00.022Z,1.50
2022-12-11T05:36:05.152Z,1.40
2022-12-11T05:41:08.961Z,1.40
2022-12-11T05:46:13.998Z,1.00
2022-12-11T05:51:19.162Z,1.10
2022-12-11T05:56:24.491Z,1.30
2022-12-11T06:01:30.348Z,1.50
2022-12-11T06:06:35.023Z,1.60
2022-12-11T06:11:38.131Z,1.40
2022-12-11T06:16:41.054Z,1.20
2022-12-11T06:21:48.762Z,0.90
2022-12-11T06:26:51.631Z,1.00
2022-12-11T06:31:54.575Z,1.30
2022-12-11T06:36:58.826Z,1.30
2022-12-11T06:42:01.741Z,1.30
2022-12-11T06:47:05.368Z,1.30
2022-12-11T06:52:12.515Z,1.30
2022-12-11T06:57:20.264Z,1.20
2022-12-11T07:02:23.246Z,1.10
2022-12-11T07:07:27.502Z,0.80
2022-12-11T07:12:30.387Z,0.60
2022-12-11T07:17:33.312Z,0.50
2022-12-11T07:22:40.402Z,0.40
2022-12-11T07:27:47.603Z,0.30
2022-12-11T07:32:50.503Z,0.50
2022-12-11T07:37:54.752Z,0.50
2022-12-11T07:42:57.610Z,0.90
2022-12-11T07:48:00.470Z,1.10
2022-12-11T07:53:04.678Z,1.10
2022-12-11T07:58:07.550Z,1.30
2022-12-11T08:03:10.397Z,1.30
2022-12-11T08:08:14.715Z,1.40
2022-12-11T08:13:17.607Z,1.50
2022-12-11T08:18:20.542Z,1.60
2022-12-11T08:23:24.740Z,1.60
2022-12-11T08:28:27.633Z,1.70
2022-12-11T08:33:30.556Z,1.70
2022-12-11T08:38:35.039Z,1.50
2022-12-11T08:43:38.140Z,1.60
2022-12-11T08:48:42.486Z,3.20
2022-12-11T08:53:46.690Z,2.90
2022-12-11T08:58:49.650Z,2.50
2022-12-11T09:03:54.002Z,2.30
2022-12-11T09:09:00.929Z,2.20
2022-12-11T09:14:07.584Z,2.20
2022-12-11T09:19:14.028Z,2.20
2022-12-11T09:24:18.276Z,2.00
2022-12-11T09:29:21.171Z,2.10
2022-12-11T09:34:29.071Z,2.20
2022-12-11T09:39:33.725Z,2.20
2022-12-11T09:44:43.232Z,2.00
2022-12-11T09:49:48.245Z,2.00
2022-12-11T09:54:55.300Z,2.10
2022-12-11T10:00:17.288Z,2.20
2022-12-11T10:05:29.779Z,2.30
2022-12-11T10:10:42.169Z,2.30
2022-12-11T10:15:50.836Z,2.30
2022-12-11T10:20:55.104Z,2.30
2022-12-11T10:26:09.472Z,2.30
2022-12-11T10:31:18.329Z,2.40
2022-12-11T10:36:28.429Z,2.40
2022-12-11T10:41:39.932Z,2.60
2022-12-11T10:46:42.898Z,2.70
2022-12-11T10:51:46.024Z,2.80
2022-12-11T10:56:51.530Z,2.90
2022-12-11T11:01:55.125Z,2.90
2022-12-11T11:07:12.345Z,2.80
2022-12-11T11:12:26.072Z,2.80
2022-12-11T11:17:33.790Z,2.90
2022-12-11T11:22:41.612Z,2.90
2022-12-11T11:27:49.742Z,3.00
2022-12-11T11:32:56.222Z,3.10
2022-12-11T11:38:04.188Z,3.00
2022-12-11T11:43:30.156Z,2.80
2022-12-11T11:48:41.370Z,2.80
2022-12-11T11:53:49.092Z,2.80
2022-12-11T11:59:02.377Z,2.90
2022-12-11T12:04:06.054Z,2.90
2022-12-11T12:09:21.777Z,3.00
2022-12-11T12:14:51.710Z,2.90
2022-12-11T12:20:04.851Z,2.80
2022-12-11T12:25:19.642Z,2.80
2022-12-11T12:30:24.346Z,2.90
2022-12-11T12:35:35.823Z,2.90
2022-12-11T12:40:51.816Z,2.60
2022-12-11T12:46:11.375Z,2.70
2022-12-11T12:51:15.928Z,2.80
2022-12-11T12:56:19.212Z,2.90
2022-12-11T13:01:26.203Z,2.90
2022-12-11T13:06:32.566Z,3.10
2022-12-11T13:11:36.855Z,3.20
2022-12-11T13:16:42.873Z,3.20
2022-12-11T13:21:57.017Z,3.10
2022-12-11T13:27:10.454Z,3.30
2022-12-11T13:32:25.510Z,3.20
2022-12-11T13:37:33.075Z,3.30
2022-12-11T13:42:45.212Z,3.20
2022-12-11T13:47:49.647Z,3.10
2022-12-11T13:52:55.715Z,3.10
2022-12-11T13:57:59.488Z,3.00
2022-12-11T14:03:07.376Z,2.90
2022-12-11T14:08:11.095Z,2.90
2022-12-11T14:13:20.983Z,2.90
2022-12-11T14:18:28.233Z,3.00
2022-12-11T14:23:32.702Z,3.20
2022-12-11T14:28:39.489Z,3.10
2022-12-11T14:33:51.426Z,3.00
2022-12-11T14:39:00.446Z,2.90
2022-12-11T14:44:07.663Z,2.80
2022-12-11T14:49:19.994Z,2.70
2022-12-11T14:54:29.476Z,2.80
2022-12-11T14:59:39.258Z,2.90
2022-12-11T15:04:43.482Z,2.80
2022-12-11T15:09:47.683Z,2.50
2022-12-11T15:14:53.386Z,2.60
2022-12-11T15:20:07.347Z,2.80
2022-12-11T15:25:21.020Z,2.80
2022-12-11T15:30:33.188Z,2.80
2022-12-11T15:35:39.114Z,2.80
2022-12-11T15:40:42.007Z,3.00
2022-12-11T15:45:44.952Z,3.00
2022-12-11T15:50:49.404Z,2.90
2022-12-11T15:55:52.897Z,2.90
2022-12-11T16:00:57.365Z,3.00
2022-12-11T16:06:02.317Z,3.10
2022-12-11T16:11:05.466Z,3.10
2022-12-11T16:16:08.930Z,2.90
2022-12-11T16:21:18.199Z,2.70
2022-12-11T16:26:24.011Z,2.70
2022-12-11T16:31:26.936Z,2.70
2022-12-11T16:36:31.333Z,2.90
2022-12-11T16:41:48.145Z,2.80
2022-12-11T16:46:51.421Z,2.70
2022-12-11T16:51:55.710Z,2.40
2022-12-11T16:56:58.572Z,2.40
2022-12-11T17:02:01.627Z,2.20
2022-12-11T17:07:06.085Z,2.10
2022-12-11T17:12:09.413Z,2.10
2022-12-11T17:17:12.268Z,2.10
2022-12-11T17:22:16.704Z,2.00
2022-12-11T17:27:19.662Z,1.80
2022-12-11T17:32:22.572Z,2.00
2022-12-11T17:37:26.893Z,1.90
2022-12-11T17:42:29.838Z,1.90
2022-12-11T17:47:32.811Z,2.00
2022-12-11T17:52:42.484Z,2.00
2022-12-11T17:57:46.983Z,2.10
2022-12-11T18:02:50.031Z,2.10
2022-12-11T18:07:57.635Z,2.30
2022-12-11T18:13:00.929Z,2.30
2022-12-11T18:18:03.816Z,2.40
2022-12-11T18:23:12.120Z,2.40
2022-12-11T18:28:14.990Z,2.40
2022-12-11T18:33:19.959Z,2.40
2022-12-11T18:38:24.724Z,2.30
2022-12-11T18:43:28.623Z,2.30
2022-12-11T18:48:31.534Z,2.40
2022-12-11T18:53:39.170Z,2.40
2022-12-11T18:58:42.708Z,2.30
2022-12-11T19:03:46.944Z,2.20
2022-12-11T19:08:51.880Z,2.00
2022-12-11T19:13:56.552Z,1.80
2022-12-11T19:18:59.894Z,1.80
2022-12-11T19:24:04.210Z,1.90
2022-12-11T19:29:07.530Z,1.70
2022-12-11T19:34:10.472Z,1.70
2022-12-11T19:39:15.861Z,1.70
2022-12-11T19:44:19.256Z,1.60
2022-12-11T19:49:22.216Z,1.20
2022-12-11T19:54:28.232Z,1.00
2022-12-11T19:59:31.129Z,0.80
2022-12-11T20:04:33.991Z,0.90
2022-12-11T20:09:41.455Z,1.00
2022-12-11T20:14:44.387Z,1.20
2022-12-11T20:19:47.351Z,1.30
2022-12-11T20:24:52.063Z,1.30
2022-12-11T20:29:55.041Z,1.40
2022-12-11T20:34:58.046Z,1.50
2022-12-11T20:40:02.834Z,1.50
2022-12-11T20:45:07.174Z,1.50
2022-12-11T20:50:11.219Z,1.50
2022-12-11T20:55:16.404Z,1.70
2022-12-11T21:00:20.793Z,1.70
2022-12-11T21:05:23.953Z,1.70
2022-12-11T21:10:35.013Z,1.70
2022-12-11T21:15:37.991Z,1.70
2022-12-11T21:20:44.089Z,1.70
2022-12-11T21:25:48.747Z,1.70
2022-12-11T21:30:51.760Z,1.80
2022-12-11T21:36:28.343Z,1.90
2022-12-11T21:41:32.744Z,1.80
2022-12-11T21:46:35.849Z,1.80
2022-12-11T21:52:05.711Z,1.70
2022-12-11T21:57:09.932Z,1.70
2022-12-11T22:02:12.996Z,1.60
2022-12-11T22:07:16.289Z,1.60
2022-12-11T22:12:24.354Z,1.60
2022-12-11T22:17:27.219Z,1.60
2022-12-11T22:22:31.675Z,1.50
2022-12-11T22:27:36.390Z,1.40
2022-12-11T22:32:39.329Z,1.40
2022-12-11T22:37:42.207Z,1.30
2022-12-11T22:42:46.411Z,1.20
2022-12-11T22:47:49.348Z,1.20
2022-12-11T22:52:52.217Z,1.10
2022-12-11T22:57:56.435Z,0.90
2022-12-11T23:02:59.404Z,0.80
2022-12-11T23:08:02.546Z,0.80
2022-12-11T23:13:06.953Z,0.90
2022-12-11T23:18:09.828Z,0.70
2022-12-11T23:23:12.688Z,0.60
2022-12-11T23:28:16.900Z,0.60
2022-12-11T23:33:19.799Z,0.50
2022-12-11T23:38:22.659Z,0.60
2022-12-11T23:43:27.474Z,0.50
2022-12-11T23:48:31.093Z,0.60
2022-12-11T23:53:34.152Z,0.50
2022-12-11T23:58:39.326Z,0.50
